sensor_id;sensor_type;location;lat;lon;timestamp;temperature;humidity
21425;DHT22;10873;51.132;16.848;2023-10-13T00:00:38;26.30;67.50
21425;DHT22;10873;51.132;16.848;2023-10-13T00:03:28;26.20;67.40
21425;DHT22;10873;51.132;16.848;2023-10-13T00:05:58;26.20;67.40
21425;DHT22;10873;51.132;16.848;2023-10-13T00:08:29;26.20;67.50
21425;DHT22;10873;51.132;16.848;2023-10-13T00:10:55;26.20;67.40
21425;DHT22;10873;51.132;16.848;2023-10-13T00:13:30;26.20;67.40
21425;DHT22;10873;51.132;16.848;2023-10-13T00:16:06;26.20;67.40
21425;DHT22;10873;51.132;16.848;2023-10-13T00:18:35;26.20;67.50
21425;DHT22;10873;51.132;16.848;2023-10-13T00:21:07;26.20;67.40
21425;DHT22;10873;51.132;16.848;2023-10-13T00:23:40;26.20;67.40
21425;DHT22;10873;51.132;16.848;2023-10-13T00:26:27;26.20;67.40
21425;DHT22;10873;51.132;16.848;2023-10-13T00:28:56;26.20;67.40
21425;DHT22;10873;51.132;16.848;2023-10-13T00:31:45;26.20;67.40
21425;DHT22;10873;51.132;16.848;2023-10-13T00:34:14;26.20;67.40
21425;DHT22;10873;51.132;16.848;2023-10-13T00:36:53;26.20;67.30
21425;DHT22;10873;51.132;16.848;2023-10-13T00:39:41;26.20;67.30
21425;DHT22;10873;51.132;16.848;2023-10-13T00:42:15;26.20;67.30
21425;DHT22;10873;51.132;16.848;2023-10-13T00:44:47;26.20;67.30
21425;DHT22;10873;51.132;16.848;2023-10-13T00:47:16;26.20;67.30
21425;DHT22;10873;51.132;16.848;2023-10-13T00:50:04;26.20;67.30
21425;DHT22;10873;51.132;16.848;2023-10-13T00:52:30;26.20;67.20
21425;DHT22;10873;51.132;16.848;2023-10-13T00:54:59;26.20;67.20
21425;DHT22;10873;51.132;16.848;2023-10-13T00:57:35;26.20;67.30
21425;DHT22;10873;51.132;16.848;2023-10-13T01:00:05;26.20;67.30
21425;DHT22;10873;51.132;16.848;2023-10-13T01:02:38;26.20;67.20
21425;DHT22;10873;51.132;16.848;2023-10-13T01:05:05;26.20;67.20
21425;DHT22;10873;51.132;16.848;2023-10-13T01:07:35;26.20;67.20
21425;DHT22;10873;51.132;16.848;2023-10-13T01:10:03;26.20;67.20
21425;DHT22;10873;51.132;16.848;2023-10-13T01:12:30;26.20;67.20
21425;DHT22;10873;51.132;16.848;2023-10-13T01:14:56;26.20;67.20
21425;DHT22;10873;51.132;16.848;2023-10-13T01:17:24;26.20;67.20
21425;DHT22;10873;51.132;16.848;2023-10-13T01:19:57;26.20;67.20
21425;DHT22;10873;51.132;16.848;2023-10-13T01:22:24;26.10;67.20
21425;DHT22;10873;51.132;16.848;2023-10-13T01:24:51;26.20;67.20
21425;DHT22;10873;51.132;16.848;2023-10-13T01:27:20;26.10;67.10
21425;DHT22;10873;51.132;16.848;2023-10-13T01:29:51;26.20;67.10
21425;DHT22;10873;51.132;16.848;2023-10-13T01:32:24;26.20;67.10
21425;DHT22;10873;51.132;16.848;2023-10-13T01:34:50;26.20;67.10
21425;DHT22;10873;51.132;16.848;2023-10-13T01:37:21;26.10;67.00
21425;DHT22;10873;51.132;16.848;2023-10-13T01:39:48;26.10;67.00
21425;DHT22;10873;51.132;16.848;2023-10-13T01:42:16;26.10;67.00
21425;DHT22;10873;51.132;16.848;2023-10-13T01:44:50;26.10;67.00
21425;DHT22;10873;51.132;16.848;2023-10-13T01:47:17;26.10;67.00
21425;DHT22;10873;51.132;16.848;2023-10-13T01:49:43;26.10;67.00
21425;DHT22;10873;51.132;16.848;2023-10-13T01:52:13;26.10;67.00
21425;DHT22;10873;51.132;16.848;2023-10-13T01:54:42;26.10;67.00
21425;DHT22;10873;51.132;16.848;2023-10-13T01:57:10;26.10;67.00
21425;DHT22;10873;51.132;16.848;2023-10-13T01:59:47;26.10;67.00
21425;DHT22;10873;51.132;16.848;2023-10-13T02:02:14;26.10;67.00
21425;DHT22;10873;51.132;16.848;2023-10-13T02:04:41;26.10;67.00
21425;DHT22;10873;51.132;16.848;2023-10-13T02:07:22;26.10;67.00
21425;DHT22;10873;51.132;16.848;2023-10-13T02:09:53;26.10;67.00
21425;DHT22;10873;51.132;16.848;2023-10-13T02:12:21;26.10;67.00
21425;DHT22;10873;51.132;16.848;2023-10-13T02:15:15;26.10;66.90
21425;DHT22;10873;51.132;16.848;2023-10-13T02:17:47;26.10;66.90
21425;DHT22;10873;51.132;16.848;2023-10-13T02:20:35;26.10;66.90
21425;DHT22;10873;51.132;16.848;2023-10-13T02:23:09;26.10;66.90
21425;DHT22;10873;51.132;16.848;2023-10-13T02:25:38;26.10;66.90
21425;DHT22;10873;51.132;16.848;2023-10-13T02:28:12;26.10;66.90
21425;DHT22;10873;51.132;16.848;2023-10-13T02:30:48;26.10;66.90
21425;DHT22;10873;51.132;16.848;2023-10-13T02:33:19;26.10;66.90
21425;DHT22;10873;51.132;16.848;2023-10-13T02:35:48;26.10;66.90
21425;DHT22;10873;51.132;16.848;2023-10-13T02:38:20;26.10;67.00
21425;DHT22;10873;51.132;16.848;2023-10-13T02:41:19;26.00;66.90
21425;DHT22;10873;51.132;16.848;2023-10-13T02:43:52;26.10;66.90
21425;DHT22;10873;51.132;16.848;2023-10-13T02:46:20;26.00;66.80
21425;DHT22;10873;51.132;16.848;2023-10-13T02:48:48;26.10;66.80
21425;DHT22;10873;51.132;16.848;2023-10-13T02:51:19;26.10;66.80
21425;DHT22;10873;51.132;16.848;2023-10-13T02:53:52;26.10;66.80
21425;DHT22;10873;51.132;16.848;2023-10-13T02:56:19;26.00;66.60
21425;DHT22;10873;51.132;16.848;2023-10-13T02:58:49;26.10;66.70
21425;DHT22;10873;51.132;16.848;2023-10-13T03:01:35;26.00;66.50
21425;DHT22;10873;51.132;16.848;2023-10-13T03:04:03;26.10;67.30
21425;DHT22;10873;51.132;16.848;2023-10-13T03:06:29;26.00;66.50
21425;DHT22;10873;51.132;16.848;2023-10-13T03:08:59;26.00;66.40
21425;DHT22;10873;51.132;16.848;2023-10-13T03:11:41;26.00;66.30
21425;DHT22;10873;51.132;16.848;2023-10-13T03:14:14;26.00;66.30
21425;DHT22;10873;51.132;16.848;2023-10-13T03:16:52;26.00;66.30
21425;DHT22;10873;51.132;16.848;2023-10-13T03:19:18;26.00;66.20
21425;DHT22;10873;51.132;16.848;2023-10-13T03:21:48;26.00;66.20
21425;DHT22;10873;51.132;16.848;2023-10-13T03:24:30;26.00;66.20
21425;DHT22;10873;51.132;16.848;2023-10-13T03:26:59;26.00;66.20
21425;DHT22;10873;51.132;16.848;2023-10-13T03:29:35;26.00;66.20
21425;DHT22;10873;51.132;16.848;2023-10-13T03:32:03;26.00;66.20
21425;DHT22;10873;51.132;16.848;2023-10-13T03:34:33;26.00;66.20
21425;DHT22;10873;51.132;16.848;2023-10-13T03:37:00;26.00;66.20
21425;DHT22;10873;51.132;16.848;2023-10-13T03:39:47;26.10;66.20
21425;DHT22;10873;51.132;16.848;2023-10-13T03:42:13;26.10;66.10
21425;DHT22;10873;51.132;16.848;2023-10-13T03:44:45;26.10;66.00
21425;DHT22;10873;51.132;16.848;2023-10-13T03:47:13;26.10;65.90
21425;DHT22;10873;51.132;16.848;2023-10-13T03:49:53;26.10;65.80
21425;DHT22;10873;51.132;16.848;2023-10-13T03:52:39;26.10;65.80
21425;DHT22;10873;51.132;16.848;2023-10-13T03:55:05;26.10;65.80
21425;DHT22;10873;51.132;16.848;2023-10-13T03:57:32;26.10;65.80
21425;DHT22;10873;51.132;16.848;2023-10-13T04:00:07;26.10;65.70
21425;DHT22;10873;51.132;16.848;2023-10-13T04:02:47;26.10;65.70
21425;DHT22;10873;51.132;16.848;2023-10-13T04:05:19;26.10;65.70
21425;DHT22;10873;51.132;16.848;2023-10-13T04:08:05;26.10;65.70
21425;DHT22;10873;51.132;16.848;2023-10-13T04:10:51;26.10;65.70
21425;DHT22;10873;51.132;16.848;2023-10-13T04:13:17;26.10;65.70
21425;DHT22;10873;51.132;16.848;2023-10-13T04:16:01;26.10;65.80
21425;DHT22;10873;51.132;16.848;2023-10-13T04:18:47;26.10;65.80
21425;DHT22;10873;51.132;16.848;2023-10-13T04:21:37;26.10;66.10
21425;DHT22;10873;51.132;16.848;2023-10-13T04:24:08;26.10;66.90
21425;DHT22;10873;51.132;16.848;2023-10-13T04:26:50;26.10;67.30
21425;DHT22;10873;51.132;16.848;2023-10-13T04:29:35;26.00;67.50
21425;DHT22;10873;51.132;16.848;2023-10-13T04:32:19;26.00;68.50
21425;DHT22;10873;51.132;16.848;2023-10-13T04:34:55;26.00;67.90
21425;DHT22;10873;51.132;16.848;2023-10-13T04:37:24;26.00;68.00
21425;DHT22;10873;51.132;16.848;2023-10-13T04:39:59;26.00;68.10
21425;DHT22;10873;51.132;16.848;2023-10-13T04:42:35;26.00;68.20
21425;DHT22;10873;51.132;16.848;2023-10-13T04:45:19;25.90;68.40
21425;DHT22;10873;51.132;16.848;2023-10-13T04:48:00;25.90;68.70
21425;DHT22;10873;51.132;16.848;2023-10-13T04:50:47;25.90;69.00
21425;DHT22;10873;51.132;16.848;2023-10-13T04:53:18;25.90;69.10
21425;DHT22;10873;51.132;16.848;2023-10-13T04:55:53;25.90;69.10
21425;DHT22;10873;51.132;16.848;2023-10-13T04:58:34;25.90;69.10
21425;DHT22;10873;51.132;16.848;2023-10-13T05:01:19;25.90;69.10
21425;DHT22;10873;51.132;16.848;2023-10-13T05:03:50;25.90;69.20
21425;DHT22;10873;51.132;16.848;2023-10-13T05:06:40;25.90;69.20
21425;DHT22;10873;51.132;16.848;2023-10-13T05:09:09;25.90;69.20
21425;DHT22;10873;51.132;16.848;2023-10-13T05:11:54;26.00;69.30
21425;DHT22;10873;51.132;16.848;2023-10-13T05:14:39;26.00;69.30
21425;DHT22;10873;51.132;16.848;2023-10-13T05:17:23;26.00;69.30
21425;DHT22;10873;51.132;16.848;2023-10-13T05:20:09;26.00;69.20
21425;DHT22;10873;51.132;16.848;2023-10-13T05:22:55;26.10;69.20
21425;DHT22;10873;51.132;16.848;2023-10-13T05:25:40;26.00;69.20
21425;DHT22;10873;51.132;16.848;2023-10-13T05:28:24;26.10;69.20
21425;DHT22;10873;51.132;16.848;2023-10-13T05:31:09;26.10;69.20
21425;DHT22;10873;51.132;16.848;2023-10-13T05:33:53;26.10;69.20
21425;DHT22;10873;51.132;16.848;2023-10-13T05:36:38;26.10;69.10
21425;DHT22;10873;51.132;16.848;2023-10-13T05:39:24;26.10;69.10
21425;DHT22;10873;51.132;16.848;2023-10-13T05:42:09;26.10;69.10
21425;DHT22;10873;51.132;16.848;2023-10-13T05:44:53;26.10;69.10
21425;DHT22;10873;51.132;16.848;2023-10-13T05:47:43;26.10;69.10
21425;DHT22;10873;51.132;16.848;2023-10-13T05:50:09;26.20;69.10
21425;DHT22;10873;51.132;16.848;2023-10-13T05:52:45;26.10;69.00
21425;DHT22;10873;51.132;16.848;2023-10-13T05:55:26;26.20;69.10
21425;DHT22;10873;51.132;16.848;2023-10-13T05:58:11;26.20;69.00
21425;DHT22;10873;51.132;16.848;2023-10-13T06:00:56;26.10;69.00
21425;DHT22;10873;51.132;16.848;2023-10-13T06:03:41;26.10;69.00
21425;DHT22;10873;51.132;16.848;2023-10-13T06:06:26;26.10;69.00
21425;DHT22;10873;51.132;16.848;2023-10-13T06:09:11;26.20;69.00
21425;DHT22;10873;51.132;16.848;2023-10-13T06:11:56;26.20;69.00
21425;DHT22;10873;51.132;16.848;2023-10-13T06:14:45;26.20;69.00
21425;DHT22;10873;51.132;16.848;2023-10-13T06:17:30;26.10;68.90
21425;DHT22;10873;51.132;16.848;2023-10-13T06:20:14;26.10;68.90
21425;DHT22;10873;51.132;16.848;2023-10-13T06:22:59;26.10;69.00
21425;DHT22;10873;51.132;16.848;2023-10-13T06:25:50;26.10;69.00
21425;DHT22;10873;51.132;16.848;2023-10-13T06:28:36;26.10;69.00
21425;DHT22;10873;51.132;16.848;2023-10-13T06:31:09;26.10;68.90
21425;DHT22;10873;51.132;16.848;2023-10-13T06:33:53;26.10;68.90
21425;DHT22;10873;51.132;16.848;2023-10-13T06:36:21;26.10;68.90
21425;DHT22;10873;51.132;16.848;2023-10-13T06:38:47;26.10;68.90
21425;DHT22;10873;51.132;16.848;2023-10-13T06:41:21;26.10;68.90
21425;DHT22;10873;51.132;16.848;2023-10-13T06:43:57;26.10;68.90
21425;DHT22;10873;51.132;16.848;2023-10-13T06:46:27;26.10;68.90
21425;DHT22;10873;51.132;16.848;2023-10-13T06:48:54;26.10;68.90
21425;DHT22;10873;51.132;16.848;2023-10-13T06:51:21;26.10;68.90
21425;DHT22;10873;51.132;16.848;2023-10-13T06:53:51;26.10;68.90
21425;DHT22;10873;51.132;16.848;2023-10-13T06:56:23;26.10;68.90
21425;DHT22;10873;51.132;16.848;2023-10-13T06:58:53;26.10;68.90
21425;DHT22;10873;51.132;16.848;2023-10-13T07:01:27;26.10;68.90
21425;DHT22;10873;51.132;16.848;2023-10-13T07:03:53;26.10;68.90
21425;DHT22;10873;51.132;16.848;2023-10-13T07:06:20;26.10;68.90
21425;DHT22;10873;51.132;16.848;2023-10-13T07:08:46;26.10;69.00
21425;DHT22;10873;51.132;16.848;2023-10-13T07:11:18;26.10;68.90
21425;DHT22;10873;51.132;16.848;2023-10-13T07:13:59;26.10;68.90
21425;DHT22;10873;51.132;16.848;2023-10-13T07:16:27;26.10;69.00
21425;DHT22;10873;51.132;16.848;2023-10-13T07:19:01;26.10;69.00
21425;DHT22;10873;51.132;16.848;2023-10-13T07:21:35;26.20;69.00
21425;DHT22;10873;51.132;16.848;2023-10-13T07:24:21;26.10;69.00
21425;DHT22;10873;51.132;16.848;2023-10-13T07:26:48;26.10;69.00
21425;DHT22;10873;51.132;16.848;2023-10-13T07:29:23;26.10;68.90
21425;DHT22;10873;51.132;16.848;2023-10-13T07:31:52;26.20;69.00
21425;DHT22;10873;51.132;16.848;2023-10-13T07:34:18;26.20;69.00
21425;DHT22;10873;51.132;16.848;2023-10-13T07:36:53;26.20;69.00
21425;DHT22;10873;51.132;16.848;2023-10-13T07:39:25;26.20;69.00
21425;DHT22;10873;51.132;16.848;2023-10-13T07:41:52;26.20;69.00
21425;DHT22;10873;51.132;16.848;2023-10-13T07:44:29;26.20;69.00
21425;DHT22;10873;51.132;16.848;2023-10-13T07:47:01;26.20;69.00
21425;DHT22;10873;51.132;16.848;2023-10-13T07:49:37;26.20;69.00
21425;DHT22;10873;51.132;16.848;2023-10-13T07:52:06;26.20;69.00
21425;DHT22;10873;51.132;16.848;2023-10-13T07:54:44;26.20;69.00
21425;DHT22;10873;51.132;16.848;2023-10-13T07:57:15;26.20;69.00
21425;DHT22;10873;51.132;16.848;2023-10-13T07:59:43;26.20;69.00
21425;DHT22;10873;51.132;16.848;2023-10-13T08:02:22;26.20;68.90
21425;DHT22;10873;51.132;16.848;2023-10-13T08:05:09;26.20;68.90
21425;DHT22;10873;51.132;16.848;2023-10-13T08:07:35;26.30;69.00
21425;DHT22;10873;51.132;16.848;2023-10-13T08:10:06;26.20;68.90
21425;DHT22;10873;51.132;16.848;2023-10-13T08:12:36;26.30;68.90
21425;DHT22;10873;51.132;16.848;2023-10-13T08:15:03;26.20;68.80
21425;DHT22;10873;51.132;16.848;2023-10-13T08:17:48;26.20;69.60
21425;DHT22;10873;51.132;16.848;2023-10-13T08:20:17;26.30;68.90
21425;DHT22;10873;51.132;16.848;2023-10-13T08:22:44;26.30;68.90
21425;DHT22;10873;51.132;16.848;2023-10-13T08:25:13;26.30;68.90
21425;DHT22;10873;51.132;16.848;2023-10-13T08:28:08;26.30;68.90
21425;DHT22;10873;51.132;16.848;2023-10-13T08:31:03;26.30;68.90
21425;DHT22;10873;51.132;16.848;2023-10-13T08:33:41;26.30;68.90
21425;DHT22;10873;51.132;16.848;2023-10-13T08:36:18;26.30;68.90
21425;DHT22;10873;51.132;16.848;2023-10-13T08:38:55;26.30;68.90
21425;DHT22;10873;51.132;16.848;2023-10-13T08:41:21;26.30;68.90
21425;DHT22;10873;51.132;16.848;2023-10-13T08:43:50;26.30;68.90
21425;DHT22;10873;51.132;16.848;2023-10-13T08:46:16;26.30;68.80
21425;DHT22;10873;51.132;16.848;2023-10-13T08:49:13;26.30;68.90
21425;DHT22;10873;51.132;16.848;2023-10-13T08:51:43;26.30;68.80
21425;DHT22;10873;51.132;16.848;2023-10-13T08:54:13;26.30;68.80
21425;DHT22;10873;51.132;16.848;2023-10-13T08:56:47;26.30;68.80
21425;DHT22;10873;51.132;16.848;2023-10-13T08:59:22;26.30;68.80
21425;DHT22;10873;51.132;16.848;2023-10-13T09:01:58;26.30;68.70
21425;DHT22;10873;51.132;16.848;2023-10-13T09:04:44;26.30;68.70
21425;DHT22;10873;51.132;16.848;2023-10-13T09:07:25;26.30;68.70
21425;DHT22;10873;51.132;16.848;2023-10-13T09:09:52;26.30;69.10
21425;DHT22;10873;51.132;16.848;2023-10-13T09:12:20;26.30;70.30
21425;DHT22;10873;51.132;16.848;2023-10-13T09:14:52;26.30;70.70
21425;DHT22;10873;51.132;16.848;2023-10-13T09:17:25;26.30;71.00
21425;DHT22;10873;51.132;16.848;2023-10-13T09:20:07;26.30;71.10
21425;DHT22;10873;51.132;16.848;2023-10-13T09:22:50;26.30;70.50
21425;DHT22;10873;51.132;16.848;2023-10-13T09:25:28;26.40;70.00
21425;DHT22;10873;51.132;16.848;2023-10-13T09:28:10;26.40;70.80
21425;DHT22;10873;51.132;16.848;2023-10-13T09:30:44;26.60;75.00
21425;DHT22;10873;51.132;16.848;2023-10-13T09:33:11;26.90;74.90
21425;DHT22;10873;51.132;16.848;2023-10-13T09:35:48;27.10;75.00
21425;DHT22;10873;51.132;16.848;2023-10-13T09:38:17;27.30;75.00
21425;DHT22;10873;51.132;16.848;2023-10-13T09:40:44;27.60;75.00
21425;DHT22;10873;51.132;16.848;2023-10-13T09:43:16;27.80;74.40
21425;DHT22;10873;51.132;16.848;2023-10-13T09:45:56;28.10;74.60
21425;DHT22;10873;51.132;16.848;2023-10-13T09:48:45;28.30;74.10
21425;DHT22;10873;51.132;16.848;2023-10-13T09:51:15;28.60;73.00
21425;DHT22;10873;51.132;16.848;2023-10-13T09:53:51;28.80;72.40
21425;DHT22;10873;51.132;16.848;2023-10-13T09:56:24;29.00;71.50
21425;DHT22;10873;51.132;16.848;2023-10-13T09:58:55;29.20;70.90
21425;DHT22;10873;51.132;16.848;2023-10-13T10:01:28;29.30;70.50
21425;DHT22;10873;51.132;16.848;2023-10-13T10:04:07;29.50;69.70
21425;DHT22;10873;51.132;16.848;2023-10-13T10:06:37;29.60;68.90
21425;DHT22;10873;51.132;16.848;2023-10-13T10:09:17;29.80;67.90
21425;DHT22;10873;51.132;16.848;2023-10-13T10:12:13;29.90;67.20
21425;DHT22;10873;51.132;16.848;2023-10-13T10:15:06;30.10;66.50
21425;DHT22;10873;51.132;16.848;2023-10-13T10:17:40;30.10;66.10
21425;DHT22;10873;51.132;16.848;2023-10-13T10:20:07;30.30;67.00
21425;DHT22;10873;51.132;16.848;2023-10-13T10:22:57;30.40;65.50
21425;DHT22;10873;51.132;16.848;2023-10-13T10:25:30;30.60;65.00
21425;DHT22;10873;51.132;16.848;2023-10-13T10:28:01;30.70;64.30
21425;DHT22;10873;51.132;16.848;2023-10-13T10:30:32;30.90;63.60
21425;DHT22;10873;51.132;16.848;2023-10-13T10:33:00;30.90;64.90
21425;DHT22;10873;51.132;16.848;2023-10-13T10:35:27;30.80;64.70
21425;DHT22;10873;51.132;16.848;2023-10-13T10:38:07;30.70;65.30
21425;DHT22;10873;51.132;16.848;2023-10-13T10:40:49;30.70;64.80
21425;DHT22;10873;51.132;16.848;2023-10-13T10:43:18;30.80;64.60
21425;DHT22;10873;51.132;16.848;2023-10-13T10:45:46;30.70;64.40
21425;DHT22;10873;51.132;16.848;2023-10-13T10:48:15;30.60;63.40
21425;DHT22;10873;51.132;16.848;2023-10-13T10:50:44;30.40;63.70
21425;DHT22;10873;51.132;16.848;2023-10-13T10:53:21;30.30;64.10
21425;DHT22;10873;51.132;16.848;2023-10-13T10:55:48;30.10;63.80
21425;DHT22;10873;51.132;16.848;2023-10-13T10:58:14;30.00;64.00
21425;DHT22;10873;51.132;16.848;2023-10-13T11:01:05;29.90;63.30
21425;DHT22;10873;51.132;16.848;2023-10-13T11:03:36;29.70;63.50
21425;DHT22;10873;51.132;16.848;2023-10-13T11:06:04;29.60;62.80
21425;DHT22;10873;51.132;16.848;2023-10-13T11:08:32;29.50;62.90
21425;DHT22;10873;51.132;16.848;2023-10-13T11:10:58;29.40;62.80
21425;DHT22;10873;51.132;16.848;2023-10-13T11:13:27;29.30;62.80
21425;DHT22;10873;51.132;16.848;2023-10-13T11:15:56;29.20;62.90
21425;DHT22;10873;51.132;16.848;2023-10-13T11:18:32;29.10;62.90
21425;DHT22;10873;51.132;16.848;2023-10-13T11:21:06;29.10;63.00
21425;DHT22;10873;51.132;16.848;2023-10-13T11:23:34;29.00;63.10
21425;DHT22;10873;51.132;16.848;2023-10-13T11:26:02;28.90;63.10
21425;DHT22;10873;51.132;16.848;2023-10-13T11:28:30;28.90;63.30
21425;DHT22;10873;51.132;16.848;2023-10-13T11:31:00;28.80;63.40
21425;DHT22;10873;51.132;16.848;2023-10-13T11:33:27;28.80;63.50
21425;DHT22;10873;51.132;16.848;2023-10-13T11:35:57;28.70;63.50
21425;DHT22;10873;51.132;16.848;2023-10-13T11:38:28;28.70;63.60
21425;DHT22;10873;51.132;16.848;2023-10-13T11:41:01;28.60;63.60
21425;DHT22;10873;51.132;16.848;2023-10-13T11:43:30;28.60;63.60
21425;DHT22;10873;51.132;16.848;2023-10-13T11:46:20;28.50;63.70
21425;DHT22;10873;51.132;16.848;2023-10-13T11:49:02;28.50;63.90
21425;DHT22;10873;51.132;16.848;2023-10-13T11:51:40;28.40;63.90
21425;DHT22;10873;51.132;16.848;2023-10-13T11:54:16;28.30;63.90
21425;DHT22;10873;51.132;16.848;2023-10-13T11:56:44;28.30;64.00
21425;DHT22;10873;51.132;16.848;2023-10-13T11:59:11;28.30;64.10
21425;DHT22;10873;51.132;16.848;2023-10-13T12:01:44;28.30;64.30
21425;DHT22;10873;51.132;16.848;2023-10-13T12:04:29;28.20;64.20
21425;DHT22;10873;51.132;16.848;2023-10-13T12:07:07;28.20;64.30
21425;DHT22;10873;51.132;16.848;2023-10-13T12:09:52;28.20;64.40
21425;DHT22;10873;51.132;16.848;2023-10-13T12:12:23;28.10;64.40
21425;DHT22;10873;51.132;16.848;2023-10-13T12:14:49;28.10;65.10
21425;DHT22;10873;51.132;16.848;2023-10-13T12:17:18;28.10;64.70
21425;DHT22;10873;51.132;16.848;2023-10-13T12:19:51;28.10;64.80
21425;DHT22;10873;51.132;16.848;2023-10-13T12:22:17;28.00;64.80
21425;DHT22;10873;51.132;16.848;2023-10-13T12:25:04;28.00;64.90
21425;DHT22;10873;51.132;16.848;2023-10-13T12:27:48;28.00;65.00
21425;DHT22;10873;51.132;16.848;2023-10-13T12:30:16;28.00;65.10
21425;DHT22;10873;51.132;16.848;2023-10-13T12:32:49;27.90;65.00
21425;DHT22;10873;51.132;16.848;2023-10-13T12:35:32;27.90;65.20
21425;DHT22;10873;51.132;16.848;2023-10-13T12:38:03;27.80;65.20
21425;DHT22;10873;51.132;16.848;2023-10-13T12:40:42;27.80;65.30
21425;DHT22;10873;51.132;16.848;2023-10-13T12:43:28;27.80;65.40
21425;DHT22;10873;51.132;16.848;2023-10-13T12:46:12;27.80;65.50
21425;DHT22;10873;51.132;16.848;2023-10-13T12:49:01;27.70;65.50
21425;DHT22;10873;51.132;16.848;2023-10-13T12:51:41;27.70;65.60
21425;DHT22;10873;51.132;16.848;2023-10-13T12:54:27;27.70;65.80
21425;DHT22;10873;51.132;16.848;2023-10-13T12:57:01;27.70;65.90
21425;DHT22;10873;51.132;16.848;2023-10-13T12:59:29;27.60;65.90
21425;DHT22;10873;51.132;16.848;2023-10-13T13:01:56;27.60;66.00
21425;DHT22;10873;51.132;16.848;2023-10-13T13:04:21;27.60;66.10
21425;DHT22;10873;51.132;16.848;2023-10-13T13:06:49;27.60;66.20
21425;DHT22;10873;51.132;16.848;2023-10-13T13:09:15;27.60;66.30
21425;DHT22;10873;51.132;16.848;2023-10-13T13:11:42;27.50;66.30
21425;DHT22;10873;51.132;16.848;2023-10-13T13:14:08;27.50;66.40
21425;DHT22;10873;51.132;16.848;2023-10-13T13:16:36;27.50;66.50
21425;DHT22;10873;51.132;16.848;2023-10-13T13:19:04;27.50;66.60
21425;DHT22;10873;51.132;16.848;2023-10-13T13:21:40;27.50;66.70
21425;DHT22;10873;51.132;16.848;2023-10-13T13:24:06;27.50;66.70
21425;DHT22;10873;51.132;16.848;2023-10-13T13:26:40;27.40;66.70
21425;DHT22;10873;51.132;16.848;2023-10-13T13:29:08;27.40;66.80
21425;DHT22;10873;51.132;16.848;2023-10-13T13:31:39;27.40;66.90
21425;DHT22;10873;51.132;16.848;2023-10-13T13:34:09;27.40;67.10
21425;DHT22;10873;51.132;16.848;2023-10-13T13:36:35;27.40;67.10
21425;DHT22;10873;51.132;16.848;2023-10-13T13:39:02;27.40;67.20
21425;DHT22;10873;51.132;16.848;2023-10-13T13:41:28;27.40;67.30
21425;DHT22;10873;51.132;16.848;2023-10-13T13:43:58;27.30;67.30
21425;DHT22;10873;51.132;16.848;2023-10-13T13:46:40;27.30;67.40
21425;DHT22;10873;51.132;16.848;2023-10-13T13:49:09;27.30;67.40
21425;DHT22;10873;51.132;16.848;2023-10-13T13:51:44;27.30;67.50
21425;DHT22;10873;51.132;16.848;2023-10-13T13:54:18;27.30;67.60
21425;DHT22;10873;51.132;16.848;2023-10-13T13:56:45;27.30;67.80
21425;DHT22;10873;51.132;16.848;2023-10-13T13:59:11;27.20;67.60
21425;DHT22;10873;51.132;16.848;2023-10-13T14:01:43;27.20;67.80
21425;DHT22;10873;51.132;16.848;2023-10-13T14:04:10;27.20;67.90
21425;DHT22;10873;51.132;16.848;2023-10-13T14:06:36;27.10;67.80
21425;DHT22;10873;51.132;16.848;2023-10-13T14:09:04;27.10;67.80
21425;DHT22;10873;51.132;16.848;2023-10-13T14:11:58;27.00;67.80
21425;DHT22;10873;51.132;16.848;2023-10-13T14:14:42;27.00;67.90
21425;DHT22;10873;51.132;16.848;2023-10-13T14:17:25;27.00;68.20
21425;DHT22;10873;51.132;16.848;2023-10-13T14:20:01;26.90;68.20
21425;DHT22;10873;51.132;16.848;2023-10-13T14:22:35;26.80;68.40
21425;DHT22;10873;51.132;16.848;2023-10-13T14:25:03;26.80;68.60
21425;DHT22;10873;51.132;16.848;2023-10-13T14:27:37;26.70;68.90
21425;DHT22;10873;51.132;16.848;2023-10-13T14:30:03;26.60;68.90
21425;DHT22;10873;51.132;16.848;2023-10-13T14:32:31;26.60;69.10
21425;DHT22;10873;51.132;16.848;2023-10-13T14:34:57;26.60;69.30
21425;DHT22;10873;51.132;16.848;2023-10-13T14:37:24;26.50;69.50
21425;DHT22;10873;51.132;16.848;2023-10-13T14:39:57;26.50;69.60
21425;DHT22;10873;51.132;16.848;2023-10-13T14:42:24;26.40;69.70
21425;DHT22;10873;51.132;16.848;2023-10-13T14:44:50;26.40;69.90
21425;DHT22;10873;51.132;16.848;2023-10-13T14:47:22;26.40;70.00
21425;DHT22;10873;51.132;16.848;2023-10-13T14:49:53;26.30;69.90
21425;DHT22;10873;51.132;16.848;2023-10-13T14:52:21;26.30;70.00
21425;DHT22;10873;51.132;16.848;2023-10-13T14:54:47;26.30;70.10
21425;DHT22;10873;51.132;16.848;2023-10-13T14:57:16;26.20;70.10
21425;DHT22;10873;51.132;16.848;2023-10-13T14:59:42;26.20;70.30
21425;DHT22;10873;51.132;16.848;2023-10-13T15:02:08;26.20;70.40
21425;DHT22;10873;51.132;16.848;2023-10-13T15:04:34;26.10;70.50
21425;DHT22;10873;51.132;16.848;2023-10-13T15:07:10;26.10;70.60
21425;DHT22;10873;51.132;16.848;2023-10-13T15:09:36;26.10;70.70
21425;DHT22;10873;51.132;16.848;2023-10-13T15:12:02;26.00;70.70
21425;DHT22;10873;51.132;16.848;2023-10-13T15:14:31;26.00;70.80
21425;DHT22;10873;51.132;16.848;2023-10-13T15:16:59;26.00;71.00
21425;DHT22;10873;51.132;16.848;2023-10-13T15:19:26;26.00;71.00
21425;DHT22;10873;51.132;16.848;2023-10-13T15:21:55;26.00;71.10
21425;DHT22;10873;51.132;16.848;2023-10-13T15:24:23;26.10;71.30
21425;DHT22;10873;51.132;16.848;2023-10-13T15:26:51;26.10;71.30
21425;DHT22;10873;51.132;16.848;2023-10-13T15:29:22;26.10;71.30
21425;DHT22;10873;51.132;16.848;2023-10-13T15:31:52;26.10;71.30
21425;DHT22;10873;51.132;16.848;2023-10-13T15:34:24;26.10;71.30
21425;DHT22;10873;51.132;16.848;2023-10-13T15:37:00;26.10;71.30
21425;DHT22;10873;51.132;16.848;2023-10-13T15:39:32;26.10;71.40
21425;DHT22;10873;51.132;16.848;2023-10-13T15:41:58;26.10;71.40
21425;DHT22;10873;51.132;16.848;2023-10-13T15:44:24;26.10;71.40
21425;DHT22;10873;51.132;16.848;2023-10-13T15:46:53;26.10;71.50
21425;DHT22;10873;51.132;16.848;2023-10-13T15:49:19;26.10;71.60
21425;DHT22;10873;51.132;16.848;2023-10-13T15:51:45;26.10;71.60
21425;DHT22;10873;51.132;16.848;2023-10-13T15:54:11;26.00;71.60
21425;DHT22;10873;51.132;16.848;2023-10-13T15:56:42;26.00;71.60